createdAt,value
2023-01-09T00:01:56.514Z,99941.16
2023-01-09T00:03:58.499Z,99947.34
2023-01-09T00:06:00.247Z,99961.03
2023-01-09T00:08:02.629Z,99960.69
2023-01-09T00:10:05.686Z,99946.03
2023-01-09T00:12:07.576Z,99958.41
2023-01-09T00:14:10.980Z,99952.66
2023-01-09T00:16:13.186Z,99953.53
2023-01-09T00:18:15.084Z,99946.50
2023-01-09T00:20:17.167Z,99938.66
2023-01-09T00:22:20.127Z,99945.41
2023-01-09T00:24:21.850Z,99927.78
2023-01-09T00:26:23.589Z,99947.91
2023-01-09T00:28:25.744Z,99943.75
2023-01-09T00:30:27.777Z,99935.31
2023-01-09T00:32:29.640Z,99936.97
2023-01-09T00:34:31.487Z,99935.75
2023-01-09T00:36:33.435Z,99928.16
2023-01-09T00:38:35.190Z,99904.97
2023-01-09T00:40:36.947Z,99932.81
2023-01-09T00:42:38.846Z,99936.88
2023-01-09T00:44:46.424Z,99933.41
2023-01-09T00:46:52.117Z,99923.03
2023-01-09T00:48:53.978Z,99908.25
2023-01-09T00:50:58.970Z,99925.75
2023-01-09T00:53:15.801Z,99886.97
2023-01-09T00:55:18.053Z,99917.19
2023-01-09T00:57:19.788Z,99900.06
2023-01-09T00:59:21.787Z,99911.00
2023-01-09T01:01:23.886Z,99865.78
2023-01-09T01:03:26.429Z,99902.28
2023-01-09T01:05:28.195Z,99863.25
2023-01-09T01:07:29.911Z,99878.38
2023-01-09T01:09:31.724Z,99902.06
2023-01-09T01:11:33.937Z,99886.50
2023-01-09T01:13:36.755Z,99908.38
2023-01-09T01:15:40.191Z,99906.72
2023-01-09T01:17:43.386Z,99908.16
2023-01-09T01:19:45.352Z,99905.19
2023-01-09T01:21:47.037Z,99888.41
2023-01-09T01:23:48.968Z,99912.88
2023-01-09T01:25:50.743Z,99913.03
2023-01-09T01:27:52.741Z,99901.25
2023-01-09T01:29:54.616Z,99903.13
2023-01-09T01:31:56.665Z,99904.81
2023-01-09T01:33:58.374Z,99912.88
2023-01-09T01:36:08.686Z,99918.97
2023-01-09T01:38:10.427Z,99887.44
2023-01-09T01:40:12.730Z,99900.66
2023-01-09T01:42:15.154Z,99907.81
2023-01-09T01:44:54.083Z,99910.66
2023-01-09T01:46:56.879Z,99916.84
2023-01-09T01:49:13.244Z,99902.44
2023-01-09T01:51:17.245Z,99921.47
2023-01-09T01:53:23.943Z,99907.66
2023-01-09T01:55:26.208Z,99911.34
2023-01-09T01:57:27.997Z,99858.91
2023-01-09T01:59:38.736Z,99899.44
2023-01-09T02:01:44.624Z,99888.84
2023-01-09T02:03:46.468Z,99918.63
2023-01-09T02:05:49.182Z,99914.34
2023-01-09T02:07:51.159Z,99888.88
2023-01-09T02:09:54.090Z,99909.00
2023-01-09T02:11:57.890Z,99877.47
2023-01-09T02:14:01.259Z,99903.41
2023-01-09T02:16:24.225Z,99908.50
2023-01-09T02:18:39.790Z,99912.28
2023-01-09T02:20:48.284Z,99917.19
2023-01-09T02:23:15.896Z,99908.38
2023-01-09T02:26:06.729Z,99899.69
2023-01-09T02:28:32.997Z,99894.56
2023-01-09T02:31:05.464Z,99882.16
2023-01-09T02:33:29.817Z,99883.72
2023-01-09T02:35:37.236Z,99881.59
2023-01-09T02:37:42.004Z,99875.25
2023-01-09T02:40:05.272Z,99868.28
2023-01-09T02:42:23.689Z,99859.97
2023-01-09T02:44:28.490Z,99861.97
2023-01-09T02:46:30.282Z,99859.84
2023-01-09T02:48:32.557Z,99861.38
2023-01-09T02:50:48.032Z,99828.28
2023-01-09T02:53:23.283Z,99858.63
2023-01-09T02:55:32.419Z,99832.00
2023-01-09T02:57:48.896Z,99836.53
2023-01-09T03:00:17.125Z,99853.75
2023-01-09T03:02:45.617Z,99857.09
2023-01-09T03:05:06.116Z,99847.69
2023-01-09T03:07:24.155Z,99851.50
2023-01-09T03:09:29.467Z,99831.41
2023-01-09T03:11:39.391Z,99829.84
2023-01-09T03:13:51.813Z,99847.59
2023-01-09T03:15:55.106Z,99838.06
2023-01-09T03:17:57.739Z,99822.47
2023-01-09T03:20:02.747Z,99838.28
2023-01-09T03:22:04.872Z,99819.94
2023-01-09T03:24:06.736Z,99839.56
2023-01-09T03:26:11.425Z,99789.84
2023-01-09T03:28:30.968Z,99809.91
2023-01-09T03:30:34.621Z,99816.81
2023-01-09T03:32:36.255Z,99819.59
2023-01-09T03:34:38.109Z,99772.84
2023-01-09T03:36:39.833Z,99797.94
2023-01-09T03:38:41.613Z,99780.22
2023-01-09T03:40:43.503Z,99737.16
2023-01-09T03:42:45.244Z,99788.03
2023-01-09T03:44:46.927Z,99758.69
2023-01-09T03:46:48.776Z,99779.09
2023-01-09T03:48:50.537Z,99777.22
2023-01-09T03:50:54.033Z,99788.03
2023-01-09T03:52:56.016Z,99792.91
2023-01-09T03:54:57.714Z,99775.53
2023-01-09T03:56:59.551Z,99769.13
2023-01-09T03:59:01.280Z,99793.25
2023-01-09T04:01:05.991Z,99794.34
2023-01-09T04:03:09.696Z,99796.59
2023-01-09T04:05:11.303Z,99791.69
2023-01-09T04:07:12.996Z,99793.75
2023-01-09T04:09:14.846Z,99793.38
2023-01-09T04:11:16.924Z,99781.00
2023-01-09T04:13:19.057Z,99787.78
2023-01-09T04:15:20.881Z,99778.47
2023-01-09T04:17:22.651Z,99783.59
2023-01-09T04:19:24.346Z,99784.66
2023-01-09T04:21:26.297Z,99730.56
2023-01-09T04:23:28.208Z,99794.41
2023-01-09T04:25:30.315Z,99792.28
2023-01-09T04:27:32.235Z,99792.19
2023-01-09T04:29:33.966Z,99797.88
2023-01-09T04:31:36.443Z,99789.88
2023-01-09T04:33:38.235Z,99792.63
2023-01-09T04:35:40.270Z,99798.78
2023-01-09T04:37:42.172Z,99799.88
2023-01-09T04:40:03.414Z,99798.09
2023-01-09T04:42:05.251Z,99796.91
2023-01-09T04:44:06.987Z,99789.69
2023-01-09T04:46:08.912Z,99783.19
2023-01-09T04:48:11.123Z,99786.13
2023-01-09T04:50:12.990Z,99787.72
2023-01-09T04:52:14.837Z,99786.34
2023-01-09T04:54:16.673Z,99777.72
2023-01-09T04:56:18.419Z,99770.69
2023-01-09T04:58:20.390Z,99779.66
2023-01-09T05:00:22.340Z,99771.53
2023-01-09T05:02:24.074Z,99756.19
2023-01-09T05:04:26.185Z,99763.19
2023-01-09T05:06:28.127Z,99762.34
2023-01-09T05:08:29.902Z,99731.81
2023-01-09T05:10:31.708Z,99758.66
2023-01-09T05:12:33.563Z,99738.56
2023-01-09T05:14:35.227Z,99753.19
2023-01-09T05:16:37.176Z,99753.19
2023-01-09T05:18:38.877Z,99736.00
2023-01-09T05:20:40.547Z,99737.19
2023-01-09T05:22:42.383Z,99747.63
2023-01-09T05:24:44.060Z,99749.63
2023-01-09T05:26:45.751Z,99738.19
2023-01-09T05:28:47.613Z,99745.78
2023-01-09T05:30:49.340Z,99727.66
2023-01-09T05:32:51.018Z,99718.22
2023-01-09T05:34:52.888Z,99735.91
2023-01-09T05:36:57.640Z,99730.91
2023-01-09T05:38:59.411Z,99711.84
2023-01-09T05:41:01.180Z,99737.09
2023-01-09T05:43:02.973Z,99731.56
2023-01-09T05:45:06.104Z,99704.38
2023-01-09T05:47:07.893Z,99722.41
2023-01-09T05:49:09.817Z,99697.50
2023-01-09T05:51:12.627Z,99710.81
2023-01-09T05:53:14.496Z,99684.19
2023-01-09T05:55:16.382Z,99704.97
2023-01-09T05:57:18.134Z,99708.19
2023-01-09T05:59:19.976Z,99704.13
2023-01-09T06:01:23.667Z,99709.66
2023-01-09T06:03:25.700Z,99690.97
2023-01-09T06:05:27.587Z,99691.50
2023-01-09T06:07:29.449Z,99687.88
2023-01-09T06:09:31.389Z,99692.94
2023-01-09T06:11:33.407Z,99690.31
2023-01-09T06:13:35.086Z,99665.25
2023-01-09T06:15:36.801Z,99690.13
2023-01-09T06:17:38.585Z,99689.56
2023-01-09T06:19:40.301Z,99668.31
2023-01-09T06:21:42.207Z,99684.00
2023-01-09T06:23:44.094Z,99687.25
2023-01-09T06:25:45.785Z,99692.44
2023-01-09T06:27:47.625Z,99677.66
2023-01-09T06:29:49.578Z,99683.94
2023-01-09T06:31:51.258Z,99680.22
2023-01-09T06:33:53.432Z,99680.75
2023-01-09T06:35:55.182Z,99678.69
2023-01-09T06:37:57.072Z,99663.03
2023-01-09T06:39:59.232Z,99687.66
2023-01-09T06:42:01.238Z,99694.16
2023-01-09T06:44:02.914Z,99694.59
2023-01-09T06:46:05.010Z,99692.94
2023-01-09T06:48:07.139Z,99684.25
2023-01-09T06:50:09.584Z,99684.63
2023-01-09T06:52:11.437Z,99665.47
2023-01-09T06:54:13.230Z,99678.25
2023-01-09T06:56:14.909Z,99673.56
2023-01-09T06:58:16.973Z,99678.13
2023-01-09T07:00:19.153Z,99624.09
2023-01-09T07:02:22.148Z,99669.13
2023-01-09T07:04:24.053Z,99649.09
2023-01-09T07:06:25.775Z,99578.34
2023-01-09T07:08:27.436Z,99660.09
2023-01-09T07:10:29.372Z,99657.28
2023-01-09T07:12:31.055Z,99638.03
2023-01-09T07:14:32.849Z,99659.31
2023-01-09T07:16:34.556Z,99656.81
2023-01-09T07:18:36.252Z,99666.34
2023-01-09T07:20:39.836Z,99636.28
2023-01-09T07:22:41.484Z,99658.63
2023-01-09T07:24:43.361Z,99645.88
2023-01-09T07:26:45.100Z,99648.00
2023-01-09T07:28:46.955Z,99627.56
2023-01-09T07:30:48.929Z,99635.72
2023-01-09T07:32:50.592Z,99652.34
2023-01-09T07:34:52.258Z,99646.03
2023-01-09T07:36:54.342Z,99637.19
2023-01-09T07:38:56.014Z,99631.59
2023-01-09T07:40:57.669Z,99640.09
2023-01-09T07:42:59.705Z,99640.91
2023-01-09T07:45:01.401Z,99648.91
2023-01-09T07:47:03.127Z,99639.06
2023-01-09T07:49:05.481Z,99629.34
2023-01-09T07:51:07.201Z,99642.06
2023-01-09T07:53:08.925Z,99641.63
2023-01-09T07:55:10.830Z,99637.47
2023-01-09T07:57:12.592Z,99631.38
2023-01-09T07:59:14.366Z,99638.16
2023-01-09T08:01:16.717Z,99630.91
2023-01-09T08:03:18.515Z,99614.94
2023-01-09T08:05:21.094Z,99627.34
2023-01-09T08:07:22.832Z,99632.06
2023-01-09T08:09:24.608Z,99630.44
2023-01-09T08:11:26.665Z,99607.31
2023-01-09T08:13:28.676Z,99617.28
2023-01-09T08:15:30.419Z,99631.50
2023-01-09T08:17:32.117Z,99628.59
2023-01-09T08:19:34.030Z,99621.03
2023-01-09T08:21:35.741Z,99627.53
2023-01-09T08:23:38.026Z,99602.63
2023-01-09T08:25:40.315Z,99620.66
2023-01-09T08:27:42.050Z,99620.72
2023-01-09T08:29:43.758Z,99641.25
2023-01-09T08:31:45.680Z,99640.44
2023-01-09T08:33:47.425Z,99645.53
2023-01-09T08:35:49.212Z,99636.06
2023-01-09T08:37:51.097Z,99636.63
2023-01-09T08:39:52.939Z,99634.00
2023-01-09T08:41:54.623Z,99627.03
2023-01-09T08:43:56.693Z,99642.00
2023-01-09T08:45:59.275Z,99636.63
2023-01-09T08:48:01.058Z,99607.31
2023-01-09T08:50:02.873Z,99633.59
2023-01-09T08:52:05.734Z,99623.44
2023-01-09T08:54:07.396Z,99606.69
2023-01-09T08:56:09.439Z,99626.63
2023-01-09T08:58:11.244Z,99617.22
2023-01-09T09:00:13.623Z,99606.03
2023-01-09T09:02:15.765Z,99614.78
2023-01-09T09:04:17.502Z,99616.84
2023-01-09T09:06:19.178Z,99611.59
2023-01-09T09:08:21.200Z,99599.13
2023-01-09T09:10:24.777Z,99624.88
2023-01-09T09:12:26.450Z,99611.75
2023-01-09T09:14:28.416Z,99606.91
2023-01-09T09:16:30.123Z,99616.34
2023-01-09T09:18:31.883Z,99600.50
2023-01-09T09:20:39.012Z,99620.31
2023-01-09T09:22:40.797Z,99617.13
2023-01-09T09:24:42.705Z,99615.72
2023-01-09T09:26:44.825Z,99604.28
2023-01-09T09:28:46.612Z,99588.56
2023-01-09T09:30:48.318Z,99599.63
2023-01-09T09:32:50.435Z,99603.53
2023-01-09T09:34:52.170Z,99592.84
2023-01-09T09:36:53.858Z,99581.94
2023-01-09T09:38:55.992Z,99601.72
2023-01-09T09:41:16.518Z,99597.03
2023-01-09T09:43:33.310Z,99591.06
2023-01-09T09:45:41.335Z,99584.44
2023-01-09T09:48:07.659Z,99588.19
2023-01-09T09:50:28.900Z,99576.84
2023-01-09T09:52:56.359Z,99574.34
2023-01-09T09:55:02.666Z,99576.00
2023-01-09T09:57:05.390Z,99552.38
2023-01-09T09:59:16.114Z,99572.41
2023-01-09T10:01:33.360Z,99574.22
2023-01-09T10:04:00.848Z,99573.38
2023-01-09T10:06:31.047Z,99565.78
2023-01-09T10:09:14.262Z,99563.31
2023-01-09T10:11:24.892Z,99570.34
2023-01-09T10:13:26.876Z,99577.53
2023-01-09T10:15:46.391Z,99570.75
2023-01-09T10:18:07.699Z,99572.28
2023-01-09T10:20:37.298Z,99567.31
2023-01-09T10:22:51.929Z,99562.75
2023-01-09T10:25:02.779Z,99553.59
2023-01-09T10:27:18.128Z,99530.13
2023-01-09T10:29:22.655Z,99549.22
2023-01-09T10:31:51.682Z,99540.66
2023-01-09T10:34:22.514Z,99545.91
2023-01-09T10:36:53.099Z,99545.59
2023-01-09T10:38:58.823Z,99528.88
2023-01-09T10:41:07.008Z,99528.19
2023-01-09T10:43:34.730Z,99523.06
2023-01-09T10:45:42.457Z,99520.44
2023-01-09T10:47:45.283Z,99508.44
2023-01-09T10:49:49.859Z,99503.88
2023-01-09T10:52:05.324Z,99498.63
2023-01-09T10:54:13.660Z,99502.75
2023-01-09T10:56:26.463Z,99506.47
2023-01-09T10:58:28.209Z,99497.03
2023-01-09T11:00:30.172Z,99492.94
2023-01-09T11:02:35.545Z,99486.00
2023-01-09T11:04:39.644Z,99486.13
2023-01-09T11:06:48.034Z,99484.72
2023-01-09T11:08:55.625Z,99471.91
2023-01-09T11:11:00.366Z,99489.56
2023-01-09T11:13:27.258Z,99473.69
2023-01-09T11:15:29.193Z,99455.88
2023-01-09T11:17:30.954Z,99457.47
2023-01-09T11:19:32.752Z,99454.44
2023-01-09T11:21:39.201Z,99459.25
2023-01-09T11:23:40.944Z,99455.91
2023-01-09T11:25:53.097Z,99452.88
2023-01-09T11:28:03.972Z,99447.16
2023-01-09T11:30:15.668Z,99440.06
2023-01-09T11:32:26.399Z,99440.06
2023-01-09T11:34:31.918Z,99436.66
2023-01-09T11:36:33.784Z,99413.06
2023-01-09T11:38:51.106Z,99431.13
2023-01-09T11:40:56.808Z,99419.84
2023-01-09T11:43:13.629Z,99428.19
2023-01-09T11:45:21.632Z,99426.38
2023-01-09T11:47:40.615Z,99429.31
2023-01-09T11:49:42.306Z,99426.88
2023-01-09T11:51:44.657Z,99425.88
2023-01-09T11:54:14.182Z,99416.28
2023-01-09T11:56:17.707Z,99414.66
2023-01-09T11:58:21.410Z,99407.78
2023-01-09T12:00:28.380Z,99409.53
2023-01-09T12:02:47.486Z,99400.59
2023-01-09T12:05:24.381Z,99397.69
2023-01-09T12:07:55.911Z,99393.53
2023-01-09T12:10:19.767Z,99397.78
2023-01-09T12:12:44.729Z,99377.16
2023-01-09T12:15:09.961Z,99392.13
2023-01-09T12:17:14.411Z,99384.81
2023-01-09T12:19:38.009Z,99377.81
2023-01-09T12:21:58.668Z,99383.41
2023-01-09T12:24:17.909Z,99392.91
2023-01-09T12:26:24.625Z,99390.56
2023-01-09T12:28:29.747Z,99390.56
2023-01-09T12:30:45.359Z,99390.00
2023-01-09T12:33:02.565Z,99384.69
2023-01-09T12:35:21.244Z,99378.78
2023-01-09T12:38:07.976Z,99368.50
2023-01-09T12:40:15.826Z,99378.06
2023-01-09T12:42:34.225Z,99378.78
2023-01-09T12:44:49.586Z,99367.06
2023-01-09T12:47:31.480Z,99372.09
2023-01-09T12:49:37.833Z,99375.78
2023-01-09T12:51:39.519Z,99376.78
2023-01-09T12:53:51.326Z,99371.13
2023-01-09T12:56:04.011Z,99376.34
2023-01-09T12:58:28.237Z,99355.38
2023-01-09T13:00:40.671Z,99367.34
2023-01-09T13:03:07.229Z,99360.63
2023-01-09T13:05:28.802Z,99360.09
2023-01-09T13:07:38.177Z,99357.69
2023-01-09T13:10:04.883Z,99360.34
2023-01-09T13:12:19.490Z,99361.44
2023-01-09T13:14:36.609Z,99368.28
2023-01-09T13:16:45.003Z,99336.69
2023-01-09T13:19:06.264Z,99361.91
2023-01-09T13:21:09.441Z,99351.75
2023-01-09T13:23:33.282Z,99355.66
2023-01-09T13:25:40.960Z,99355.91
2023-01-09T13:27:49.201Z,99344.63
2023-01-09T13:30:06.949Z,99342.69
2023-01-09T13:32:33.490Z,99353.81
2023-01-09T13:34:37.240Z,99351.66
2023-01-09T13:36:45.950Z,99351.66
2023-01-09T13:38:49.983Z,99350.31
2023-01-09T13:41:21.477Z,99360.94
2023-01-09T13:43:23.151Z,99354.50
2023-01-09T13:45:28.150Z,99358.63
2023-01-09T13:47:29.937Z,99359.22
2023-01-09T13:49:37.239Z,99351.81
2023-01-09T13:51:41.907Z,99356.75
2023-01-09T13:53:45.775Z,99359.19
2023-01-09T13:55:59.595Z,99355.72
2023-01-09T13:58:04.541Z,99356.41
2023-01-09T14:00:12.385Z,99357.59
2023-01-09T14:02:32.732Z,99361.88
2023-01-09T14:04:41.657Z,99361.03
2023-01-09T14:07:15.272Z,99364.06
2023-01-09T14:09:22.745Z,99347.38
2023-01-09T14:11:25.138Z,99376.13
2023-01-09T14:13:49.139Z,99352.69
2023-01-09T14:15:52.949Z,99355.78
2023-01-09T14:18:07.407Z,99354.34
2023-01-09T14:20:30.681Z,99349.47
2023-01-09T14:22:45.464Z,99379.66
2023-01-09T14:25:04.470Z,99354.97
2023-01-09T14:27:44.447Z,99377.06
2023-01-09T14:29:46.362Z,99375.13
2023-01-09T14:31:48.430Z,99377.59
2023-01-09T14:33:50.398Z,99386.41
2023-01-09T14:36:17.088Z,99364.63
2023-01-09T14:38:43.721Z,99381.34
2023-01-09T14:40:54.480Z,99377.13
2023-01-09T14:43:01.270Z,99386.41
2023-01-09T14:45:06.574Z,99383.31
2023-01-09T14:47:37.375Z,99374.50
2023-01-09T14:49:45.537Z,99389.16
2023-01-09T14:51:49.841Z,99386.38
2023-01-09T14:53:53.508Z,99369.09
2023-01-09T14:55:55.055Z,99399.69
2023-01-09T14:58:10.706Z,99412.16
2023-01-09T15:00:12.458Z,99403.78
2023-01-09T15:02:14.454Z,99408.28
2023-01-09T15:04:33.555Z,99418.75
2023-01-09T15:06:41.317Z,99412.81
2023-01-09T15:08:46.591Z,99349.28
2023-01-09T15:10:50.744Z,99411.34
2023-01-09T15:12:55.898Z,99416.81
2023-01-09T15:15:01.440Z,99400.97
2023-01-09T15:17:04.469Z,99400.44
2023-01-09T15:19:08.755Z,99417.72
2023-01-09T15:21:20.158Z,99417.13
2023-01-09T15:23:24.849Z,99412.91
2023-01-09T15:25:38.587Z,99416.41
2023-01-09T15:27:48.593Z,99416.09
2023-01-09T15:29:52.071Z,99422.97
2023-01-09T15:32:06.751Z,99417.34
2023-01-09T15:34:22.743Z,99416.19
2023-01-09T15:36:28.419Z,99423.50
2023-01-09T15:38:32.809Z,99416.03
2023-01-09T15:40:34.805Z,99420.13
2023-01-09T15:42:40.197Z,99438.63
2023-01-09T15:44:45.548Z,99426.63
2023-01-09T15:46:48.932Z,99429.25
2023-01-09T15:48:54.294Z,99438.84
2023-01-09T15:51:01.549Z,99443.94
2023-01-09T15:53:03.307Z,99444.44
2023-01-09T15:55:36.735Z,99449.31
2023-01-09T15:57:38.558Z,99444.72
2023-01-09T15:59:40.243Z,99446.88
2023-01-09T16:01:42.221Z,99451.03
2023-01-09T16:03:44.024Z,99444.88
2023-01-09T16:05:52.077Z,99451.94
2023-01-09T16:07:53.858Z,99445.28
2023-01-09T16:10:04.847Z,99456.22
2023-01-09T16:12:06.883Z,99465.94
2023-01-09T16:14:21.312Z,99463.38
2023-01-09T16:16:32.705Z,99478.13
2023-01-09T16:18:37.459Z,99460.44
2023-01-09T16:20:39.562Z,99476.50
2023-01-09T16:22:55.967Z,99461.88
2023-01-09T16:25:03.047Z,99478.63
2023-01-09T16:27:32.133Z,99479.53
2023-01-09T16:29:38.663Z,99490.56
2023-01-09T16:31:40.463Z,99489.66
2023-01-09T16:33:48.139Z,99505.47
2023-01-09T16:35:50.981Z,99502.91
2023-01-09T16:37:52.649Z,99504.84
2023-01-09T16:40:16.337Z,99517.38
2023-01-09T16:42:18.090Z,99497.56
2023-01-09T16:44:19.959Z,99518.50
2023-01-09T16:46:22.270Z,99521.81
2023-01-09T16:48:24.045Z,99525.03
2023-01-09T16:50:26.119Z,99502.16
2023-01-09T16:52:29.569Z,99529.25
2023-01-09T16:54:31.251Z,99517.50
2023-01-09T16:56:33.233Z,99530.84
2023-01-09T16:58:36.370Z,99538.19
2023-01-09T17:00:38.128Z,99542.97
2023-01-09T17:02:39.865Z,99542.75
2023-01-09T17:04:41.730Z,99535.69
2023-01-09T17:06:44.852Z,99522.03
2023-01-09T17:08:46.613Z,99523.81
2023-01-09T17:10:50.024Z,99521.03
2023-01-09T17:12:51.798Z,99521.59
2023-01-09T17:14:53.715Z,99525.59
2023-01-09T17:16:55.663Z,99530.28
2023-01-09T17:18:57.399Z,99533.91
2023-01-09T17:20:59.065Z,99532.81
2023-01-09T17:23:00.847Z,99512.66
2023-01-09T17:25:02.565Z,99545.66
2023-01-09T17:27:04.327Z,99547.50
2023-01-09T17:29:06.677Z,99520.53
2023-01-09T17:31:11.920Z,99554.44
2023-01-09T17:33:18.318Z,99550.78
2023-01-09T17:35:20.239Z,99551.09
2023-01-09T17:37:22.091Z,99541.81
2023-01-09T17:39:23.876Z,99522.03
2023-01-09T17:41:30.803Z,99538.91
2023-01-09T17:43:32.559Z,99530.88
2023-01-09T17:45:34.325Z,99525.63
2023-01-09T17:47:36.559Z,99519.22
2023-01-09T17:49:38.249Z,99529.38
2023-01-09T17:51:39.930Z,99528.00
2023-01-09T17:53:42.027Z,99551.38
2023-01-09T17:55:43.904Z,99557.75
2023-01-09T17:57:45.610Z,99540.53
2023-01-09T17:59:47.444Z,99543.53
2023-01-09T18:01:49.179Z,99549.47
2023-01-09T18:03:50.950Z,99560.81
2023-01-09T18:05:53.438Z,99562.88
2023-01-09T18:07:55.175Z,99569.28
2023-01-09T18:09:57.401Z,99577.81
2023-01-09T18:11:59.284Z,99580.03
2023-01-09T18:14:01.071Z,99573.13
2023-01-09T18:16:02.825Z,99590.44
2023-01-09T18:18:05.224Z,99578.66
2023-01-09T18:20:07.731Z,99593.53
2023-01-09T18:22:09.486Z,99593.59
2023-01-09T18:24:11.323Z,99600.13
2023-01-09T18:26:13.826Z,99597.88
2023-01-09T18:28:16.268Z,99596.22
2023-01-09T18:30:18.276Z,99599.50
2023-01-09T18:32:19.950Z,99595.81
2023-01-09T18:34:21.695Z,99608.19
2023-01-09T18:36:28.628Z,99621.66
2023-01-09T18:38:30.375Z,99605.81
2023-01-09T18:40:32.197Z,99636.91
2023-01-09T18:42:34.023Z,99650.63
2023-01-09T18:44:37.274Z,99632.28
2023-01-09T18:46:39.402Z,99661.94
2023-01-09T18:48:41.236Z,99636.16
2023-01-09T18:50:42.980Z,99629.91
2023-01-09T18:52:44.650Z,99652.88
2023-01-09T18:54:46.855Z,99651.63
2023-01-09T18:56:48.708Z,99663.16
2023-01-09T18:58:55.042Z,99643.78
2023-01-09T19:00:56.926Z,99643.94
2023-01-09T19:02:58.653Z,99658.56
2023-01-09T19:05:00.330Z,99649.22
2023-01-09T19:07:02.199Z,99663.94
2023-01-09T19:09:04.205Z,99664.00
2023-01-09T19:11:06.211Z,99642.31
2023-01-09T19:13:07.936Z,99662.91
2023-01-09T19:15:10.120Z,99670.78
2023-01-09T19:17:11.841Z,99661.38
2023-01-09T19:19:13.962Z,99659.41
2023-01-09T19:21:20.762Z,99660.53
2023-01-09T19:23:23.219Z,99659.00
2023-01-09T19:25:25.064Z,99659.56
2023-01-09T19:27:29.452Z,99658.31
2023-01-09T19:29:31.141Z,99649.94
2023-01-09T19:31:34.607Z,99666.91
2023-01-09T19:33:37.492Z,99668.16
2023-01-09T19:35:39.516Z,99672.63
2023-01-09T19:37:41.302Z,99669.44
2023-01-09T19:39:42.958Z,99654.25
2023-01-09T19:41:44.746Z,99676.34
2023-01-09T19:43:47.537Z,99669.59
2023-01-09T19:45:49.320Z,99667.91
2023-01-09T19:47:51.285Z,99683.81
2023-01-09T19:49:52.982Z,99679.00
2023-01-09T19:51:54.826Z,99688.81
2023-01-09T19:53:58.214Z,99687.84
2023-01-09T19:56:17.706Z,99676.50
2023-01-09T19:58:19.429Z,99692.97
2023-01-09T20:00:21.153Z,99688.94
2023-01-09T20:02:22.956Z,99698.38
2023-01-09T20:04:24.924Z,99693.69
2023-01-09T20:06:26.590Z,99701.56
2023-01-09T20:08:28.264Z,99702.25
2023-01-09T20:10:29.998Z,99705.44
2023-01-09T20:12:32.348Z,99693.00
2023-01-09T20:14:34.144Z,99715.81
2023-01-09T20:16:35.964Z,99719.03
2023-01-09T20:18:37.680Z,99705.59
2023-01-09T20:22:40.971Z,99722.31
2023-01-09T20:24:42.673Z,99713.19
2023-01-09T20:26:44.780Z,99707.81
2023-01-09T20:28:47.410Z,99722.19
2023-01-09T20:30:51.399Z,99732.31
2023-01-09T20:32:53.070Z,99726.22
2023-01-09T20:34:55.462Z,99742.84
2023-01-09T20:36:57.245Z,99741.69
2023-01-09T20:39:02.128Z,99736.47
2023-01-09T20:41:08.901Z,99754.88
2023-01-09T20:43:14.939Z,99761.38
2023-01-09T20:45:16.790Z,99752.78
2023-01-09T20:47:18.671Z,99759.72
2023-01-09T20:49:20.896Z,99772.72
2023-01-09T20:51:22.863Z,99764.13
2023-01-09T20:53:24.725Z,99763.56
2023-01-09T20:55:26.429Z,99749.88
2023-01-09T20:57:29.349Z,99779.53
2023-01-09T20:59:31.208Z,99781.59
2023-01-09T21:01:33.007Z,99772.72
2023-01-09T21:03:34.803Z,99793.06
2023-01-09T21:05:40.546Z,99790.31
2023-01-09T21:07:42.279Z,99795.72
2023-01-09T21:09:43.978Z,99795.69
2023-01-09T21:11:45.719Z,99796.94
2023-01-09T21:13:47.456Z,99773.16
2023-01-09T21:15:49.325Z,99792.81
2023-01-09T21:17:51.036Z,99806.78
2023-01-09T21:19:52.723Z,99809.13
2023-01-09T21:21:54.456Z,99797.25
2023-01-09T21:23:58.383Z,99792.25
2023-01-09T21:26:00.517Z,99796.41
2023-01-09T21:28:02.796Z,99819.38
2023-01-09T21:30:06.532Z,99823.25
2023-01-09T21:32:08.334Z,99827.69
2023-01-09T21:34:11.845Z,99834.91
2023-01-09T21:36:14.489Z,99845.00
2023-01-09T21:38:16.215Z,99828.38
2023-01-09T21:40:18.003Z,99851.66
2023-01-09T21:42:19.959Z,99855.25
2023-01-09T21:44:21.659Z,99851.38
2023-01-09T21:46:23.445Z,99869.53
2023-01-09T21:48:25.289Z,99874.34
2023-01-09T21:50:28.093Z,99856.38
2023-01-09T21:52:29.807Z,99870.75
2023-01-09T21:54:32.887Z,99855.53
2023-01-09T21:56:34.828Z,99875.31
2023-01-09T21:58:36.551Z,99878.78
2023-01-09T22:00:38.290Z,99885.72
2023-01-09T22:02:40.127Z,99891.13
2023-01-09T22:04:43.423Z,99895.69
2023-01-09T22:06:45.321Z,99898.19
2023-01-09T22:08:47.023Z,99900.00
2023-01-09T22:10:55.549Z,99901.28
2023-01-09T22:12:57.219Z,99899.34
2023-01-09T22:15:04.019Z,99903.50
2023-01-09T22:17:05.790Z,99912.78
2023-01-09T22:19:07.570Z,99907.75
2023-01-09T22:21:09.379Z,99903.22
2023-01-09T22:23:11.459Z,99898.03
2023-01-09T22:25:13.348Z,99920.53
2023-01-09T22:27:15.167Z,99911.22
2023-01-09T22:29:16.854Z,99921.78
2023-01-09T22:31:22.521Z,99926.66
2023-01-09T22:33:25.303Z,99925.94
2023-01-09T22:35:27.215Z,99925.13
2023-01-09T22:37:29.006Z,99910.16
2023-01-09T22:39:30.675Z,99918.06
2023-01-09T22:41:32.420Z,99913.63
2023-01-09T22:43:34.124Z,99928.28
2023-01-09T22:45:35.834Z,99924.16
2023-01-09T22:47:37.605Z,99931.22
2023-01-09T22:49:52.268Z,99935.22
2023-01-09T22:51:54.259Z,99927.84
2023-01-09T22:53:56.003Z,99933.97
2023-01-09T22:55:59.259Z,99950.31
2023-01-09T22:58:00.975Z,99962.78
2023-01-09T23:00:03.049Z,99949.19
2023-01-09T23:02:04.983Z,99948.94
2023-01-09T23:04:06.771Z,99940.22
2023-01-09T23:06:12.684Z,99947.84
2023-01-09T23:08:15.045Z,99932.03
2023-01-09T23:10:16.884Z,99952.81
2023-01-09T23:12:19.713Z,99943.53
2023-01-09T23:14:22.036Z,99943.09
2023-01-09T23:16:23.833Z,99963.50
2023-01-09T23:18:25.864Z,99960.56
2023-01-09T23:20:27.601Z,99960.16
2023-01-09T23:22:29.325Z,99961.84
2023-01-09T23:24:32.843Z,99928.78
2023-01-09T23:26:38.261Z,99975.25
2023-01-09T23:28:40.372Z,99988.69
2023-01-09T23:30:42.159Z,99981.34
2023-01-09T23:32:44.066Z,99923.66
2023-01-09T23:34:45.814Z,99951.25
2023-01-09T23:36:47.689Z,99983.56
2023-01-09T23:38:49.734Z,99957.66
2023-01-09T23:40:56.128Z,99978.47
2023-01-09T23:42:57.869Z,99989.38
2023-01-09T23:44:59.583Z,99987.19
2023-01-09T23:47:01.265Z,99983.56
2023-01-09T23:49:02.997Z,99979.97
2023-01-09T23:51:04.859Z,99988.16
2023-01-09T23:53:06.539Z,99971.09
2023-01-09T23:55:08.474Z,99970.84
2023-01-09T23:57:10.287Z,99981.06
2023-01-09T23:59:13.060Z,99966.25
